createdAt,value
2022-09-01T00:03:12.462Z,74.19
2022-09-01T00:08:16.292Z,74.22
2022-09-01T00:13:21.307Z,74.24
2022-09-01T00:18:23.271Z,74.16
2022-09-01T00:23:26.645Z,74.24
2022-09-01T00:28:30.391Z,74.16
2022-09-01T00:33:37.189Z,74.22
2022-09-01T00:38:40.570Z,74.26
2022-09-01T00:43:59.129Z,73.92
2022-09-01T00:49:10.003Z,73.74
2022-09-01T00:54:16.211Z,73.68
2022-09-01T00:59:22.747Z,73.82
2022-09-01T01:04:26.101Z,73.75
2022-09-01T01:09:36.320Z,73.55
2022-09-01T01:14:39.920Z,73.50
2022-09-01T01:20:17.181Z,73.62
2022-09-01T01:25:22.921Z,73.59
2022-09-01T01:30:34.276Z,73.60
2022-09-01T01:35:37.346Z,73.64
2022-09-01T01:40:41.749Z,73.59
2022-09-01T01:45:45.130Z,73.83
2022-09-01T01:50:50.255Z,73.84
2022-09-01T01:55:52.451Z,74.36
2022-09-01T02:00:57.184Z,74.11
2022-09-01T02:06:07.890Z,74.02
2022-09-01T02:11:13.348Z,73.98
2022-09-01T02:16:17.243Z,73.98
2022-09-01T02:21:23.511Z,73.94
2022-09-01T02:26:33.970Z,74.01
2022-09-01T02:31:40.581Z,74.22
2022-09-01T02:36:49.675Z,73.96
2022-09-01T02:41:54.158Z,73.93
2022-09-01T02:46:59.469Z,73.75
2022-09-01T02:52:04.691Z,73.49
2022-09-01T02:57:08.768Z,73.45
2022-09-01T03:02:15.026Z,73.64
2022-09-01T03:07:18.780Z,73.97
2022-09-01T03:12:21.761Z,74.07
2022-09-01T03:17:24.853Z,73.44
2022-09-01T03:22:29.742Z,73.56
2022-09-01T03:27:33.296Z,73.35
2022-09-01T03:32:36.651Z,73.50
2022-09-01T03:37:39.560Z,73.64
2022-09-01T03:42:44.311Z,73.93
2022-09-01T03:47:48.171Z,73.77
2022-09-01T03:52:54.726Z,73.83
2022-09-01T03:58:06.404Z,74.08
2022-09-01T04:03:14.431Z,74.02
2022-09-01T04:08:19.541Z,74.17
2022-09-01T04:13:26.602Z,74.09
2022-09-01T04:18:30.390Z,73.88
2022-09-01T04:23:34.786Z,74.32
2022-09-01T04:28:41.660Z,74.57
2022-09-01T04:33:50.806Z,74.97
2022-09-01T04:39:09.423Z,74.95
2022-09-01T04:44:16.520Z,75.12
2022-09-01T04:49:22.341Z,75.39
2022-09-01T04:54:25.346Z,76.18
2022-09-01T04:59:29.912Z,76.15
2022-09-01T05:04:33.587Z,76.45
2022-09-01T05:09:37.731Z,76.57
2022-09-01T05:14:43.231Z,76.72
2022-09-01T05:19:51.304Z,76.79
2022-09-01T05:24:55.180Z,76.81
2022-09-01T05:30:01.218Z,77.24
2022-09-01T05:35:08.656Z,77.36
2022-09-01T05:40:16.570Z,77.65
2022-09-01T05:45:24.082Z,77.28
2022-09-01T05:50:27.800Z,77.15
2022-09-01T05:55:36.281Z,76.87
2022-09-01T06:00:38.299Z,76.68
2022-09-01T06:05:42.445Z,76.11
2022-09-01T06:10:45.820Z,76.37
2022-09-01T06:15:57.071Z,76.14
2022-09-01T06:21:04.571Z,75.82
2022-09-01T06:26:09.402Z,75.84
2022-09-01T06:31:13.404Z,75.60
2022-09-01T06:36:17.698Z,75.49
2022-09-01T06:41:24.109Z,74.87
2022-09-01T06:46:29.714Z,74.90
2022-09-01T06:51:36.926Z,74.41
2022-09-01T06:56:43.011Z,74.26
2022-09-01T07:01:49.134Z,73.71
2022-09-01T07:17:52.975Z,72.17
2022-09-01T07:28:37.874Z,70.18
2022-09-01T07:33:44.156Z,69.20
2022-09-01T07:42:31.250Z,73.04
2022-09-01T07:44:17.319Z,65.81
2022-09-01T07:50:08.479Z,64.65
2022-09-01T07:54:44.453Z,63.59
2022-09-01T07:59:52.112Z,62.03
2022-09-01T08:04:56.069Z,60.75
2022-09-01T08:10:01.919Z,60.82
2022-09-01T08:20:35.942Z,59.71
2022-09-01T08:25:38.321Z,59.70
2022-09-01T08:30:52.349Z,58.56
2022-09-01T08:35:58.963Z,57.94
2022-09-01T08:41:03.530Z,57.43
2022-09-01T08:46:37.596Z,57.71
2022-09-01T08:52:10.069Z,58.25
2022-09-01T08:57:23.083Z,58.06
2022-09-01T09:03:00.555Z,56.74
2022-09-01T09:08:24.851Z,56.36
2022-09-01T09:13:57.368Z,55.75
2022-09-01T09:19:10.489Z,54.93
2022-09-01T09:24:47.810Z,55.05
2022-09-01T09:29:53.442Z,54.14
2022-09-01T09:34:56.267Z,53.53
2022-09-01T09:40:22.251Z,53.24
2022-09-01T09:45:28.902Z,52.55
2022-09-01T09:50:39.875Z,52.01
2022-09-01T09:55:57.364Z,51.81
2022-09-01T10:01:06.606Z,50.95
2022-09-01T10:06:30.253Z,50.56
2022-09-01T10:11:41.622Z,49.99
2022-09-01T10:16:47.937Z,50.26
2022-09-01T10:21:53.200Z,50.21
2022-09-01T10:27:00.271Z,50.42
2022-09-01T10:32:28.414Z,49.34
2022-09-01T10:37:32.312Z,47.96
2022-09-01T10:42:37.051Z,48.34
2022-09-01T10:47:40.533Z,48.56
2022-09-01T10:52:44.120Z,48.50
2022-09-01T10:58:09.517Z,48.69
2022-09-01T11:03:32.856Z,48.73
2022-09-01T11:09:00.918Z,48.34
2022-09-01T11:14:16.383Z,48.64
2022-09-01T11:19:35.397Z,48.40
2022-09-01T11:24:50.825Z,48.46
2022-09-01T11:30:09.377Z,49.16
2022-09-01T11:35:24.232Z,48.95
2022-09-01T11:40:32.738Z,48.83
2022-09-01T11:45:50.688Z,48.86
2022-09-01T11:51:01.986Z,49.35
2022-09-01T11:56:25.110Z,49.10
2022-09-01T12:01:30.053Z,48.78
2022-09-01T12:06:32.150Z,48.20
2022-09-01T12:11:35.976Z,47.66
2022-09-01T12:16:42.226Z,48.01
2022-09-01T12:21:56.003Z,47.94
2022-09-01T12:26:58.576Z,47.76
2022-09-01T12:32:01.294Z,47.36
2022-09-01T12:37:10.905Z,47.43
2022-09-01T12:42:19.298Z,47.42
2022-09-01T12:47:34.331Z,47.57
2022-09-01T12:52:45.966Z,48.19
2022-09-01T12:58:09.517Z,48.67
2022-09-01T13:03:15.568Z,49.19
2022-09-01T13:08:21.417Z,49.03
2022-09-01T13:13:25.534Z,48.85
2022-09-01T13:18:29.424Z,48.39
2022-09-01T13:23:31.833Z,47.41
2022-09-01T13:28:37.505Z,46.85
2022-09-01T13:39:04.914Z,47.18
2022-09-01T13:44:11.495Z,46.96
2022-09-01T13:54:36.383Z,47.68
2022-09-01T13:59:38.830Z,47.59
2022-09-01T14:04:41.144Z,48.25
2022-09-01T14:09:43.383Z,48.93
2022-09-01T14:20:12.636Z,50.48
2022-09-01T14:25:15.886Z,51.36
2022-09-01T14:30:30.452Z,51.90
2022-09-01T14:35:33.628Z,52.01
2022-09-01T14:40:38.305Z,51.97
2022-09-01T14:45:44.633Z,52.43
2022-09-01T14:50:48.705Z,52.23
2022-09-01T14:55:55.544Z,52.33
2022-09-01T15:01:11.940Z,51.86
2022-09-01T15:06:22.049Z,51.66
2022-09-01T15:11:24.660Z,51.19
2022-09-01T15:16:28.439Z,50.66
2022-09-01T15:21:34.242Z,50.59
2022-09-01T15:26:38.128Z,50.38
2022-09-01T15:31:43.141Z,50.14
2022-09-01T15:36:45.972Z,49.84
2022-09-01T15:41:49.757Z,49.57
2022-09-01T15:46:53.217Z,49.52
2022-09-01T15:51:57.368Z,49.60
2022-09-01T15:56:59.568Z,49.84
2022-09-01T16:02:02.302Z,50.07
2022-09-01T16:07:06.141Z,50.13
2022-09-01T16:12:09.989Z,50.15
2022-09-01T16:17:41.159Z,50.80
2022-09-01T16:23:17.592Z,50.46
2022-09-01T16:28:27.640Z,50.31
2022-09-01T16:33:32.749Z,50.94
2022-09-01T16:38:47.664Z,51.51
2022-09-01T16:44:22.382Z,51.78
2022-09-01T16:50:05.329Z,52.38
2022-09-01T16:55:18.719Z,52.63
2022-09-01T17:00:29.320Z,53.03
2022-09-01T17:05:48.237Z,53.33
2022-09-01T17:11:11.308Z,53.68
2022-09-01T17:16:25.455Z,54.20
2022-09-01T17:21:53.623Z,55.10
2022-09-01T17:27:07.961Z,55.92
2022-09-01T17:32:22.522Z,56.56
2022-09-01T17:37:57.458Z,57.28
2022-09-01T17:43:26.404Z,57.77
2022-09-01T17:48:40.247Z,58.17
2022-09-01T17:54:01.303Z,58.64
2022-09-01T17:59:22.116Z,59.40
2022-09-01T18:05:07.585Z,60.28
2022-09-01T18:10:14.631Z,60.77
2022-09-01T18:15:20.723Z,61.59
2022-09-01T18:20:42.995Z,62.46
2022-09-01T18:25:54.985Z,63.26
2022-09-01T18:31:00.025Z,63.74
2022-09-01T18:36:21.194Z,64.08
2022-09-01T18:41:48.494Z,64.90
2022-09-01T18:47:01.081Z,65.28
2022-09-01T18:52:25.268Z,65.85
2022-09-01T18:57:36.179Z,66.28
2022-09-01T19:02:57.197Z,66.78
2022-09-01T19:08:21.100Z,67.24
2022-09-01T19:13:36.988Z,67.54
2022-09-01T19:19:14.226Z,67.65
2022-09-01T19:24:26.921Z,67.94
2022-09-01T19:29:44.985Z,68.15
2022-09-01T19:35:00.079Z,68.19
2022-09-01T19:40:04.240Z,68.00
2022-09-01T19:45:22.538Z,67.93
2022-09-01T19:50:52.647Z,67.74
2022-09-01T19:56:13.530Z,67.74
2022-09-01T20:01:22.469Z,67.95
2022-09-01T20:06:35.455Z,68.40
2022-09-01T20:11:45.270Z,68.86
2022-09-01T20:16:51.281Z,69.24
2022-09-01T20:21:53.522Z,69.82
2022-09-01T20:27:09.461Z,69.92
2022-09-01T20:32:19.430Z,69.75
2022-09-01T20:37:30.429Z,70.00
2022-09-01T20:42:48.618Z,70.11
2022-09-01T20:48:06.793Z,70.23
2022-09-01T20:53:15.114Z,70.36
2022-09-01T20:58:32.854Z,70.56
2022-09-01T21:03:59.502Z,70.74
2022-09-01T21:09:18.566Z,71.20
2022-09-01T21:14:40.558Z,71.30
2022-09-01T21:19:51.979Z,71.43
2022-09-01T21:24:54.729Z,71.67
2022-09-01T21:30:06.817Z,71.80
2022-09-01T21:35:13.840Z,72.04
2022-09-01T21:40:18.977Z,72.28
2022-09-01T21:45:22.702Z,72.22
2022-09-01T21:50:25.790Z,72.37
2022-09-01T21:55:32.709Z,72.21
2022-09-01T22:00:39.137Z,71.96
2022-09-01T22:05:44.830Z,72.22
2022-09-01T22:10:51.516Z,72.49
2022-09-01T22:15:54.169Z,72.73
2022-09-01T22:21:09.252Z,72.66
2022-09-01T22:26:23.649Z,72.47
2022-09-01T22:31:27.878Z,72.65
2022-09-01T22:36:40.561Z,72.54
2022-09-01T22:41:43.140Z,72.72
2022-09-01T22:46:45.906Z,72.97
2022-09-01T22:51:48.265Z,73.04
2022-09-01T22:56:52.058Z,72.90
2022-09-01T23:01:56.925Z,73.22
2022-09-01T23:06:59.883Z,73.13
2022-09-01T23:12:03.270Z,73.11
2022-09-01T23:17:05.923Z,73.22
2022-09-01T23:22:08.322Z,73.13
2022-09-01T23:27:10.620Z,73.04
2022-09-01T23:32:13.432Z,72.90
2022-09-01T23:37:15.703Z,72.60
2022-09-01T23:42:17.893Z,72.52
2022-09-01T23:47:20.222Z,72.56
2022-09-01T23:52:22.197Z,72.30
2022-09-01T23:57:24.923Z,72.37
